aviador You're here:

KJNX Decoded Metar

SMITHFIELD JOHNS in NC, USA
Report Time2018-02-22 08:20:00
UTC Time2018-02-22 08:31:19
Flight Rules ifr IFR
Wind200° at 03 kt
W.Decomp.*RWY 21: 3.0 kt HW 0.1 kt LCW
W.Rank200° ranks 4
Current wind is below 200° avg. (5.6)
Visibility9999 m
Phenomena:N/A
Clouds:Overcast 006 Hf
Ceiling600 ft
Temp17°C (ISA +2)
Dew Point17°C (100% RH)
QNH1030 hPa
Density Alt125 ft
Elevation164 ft
Report Wrong Elevation
Raw Report
KJNX 220820Z AUTO 20003KT 7SM OVC006 17/17 A3043 RMK AO2=

Extra information for KJNX:More info

Metar Taf Metar & Taf Last 4 Metars F.Rules Stats Wind Profile Meteogram Temp Stats Airport Information Weather charts Add Link Nearby VenuesMetar ALERT Operation Metar Decoded Social comments

AIRNAV info for KJNX